PDX weather

Portland International Airport
Portland, Oregon, United States

Public forecast

Using degrees Fahrenheit for public forecast. Weather courtesy of forecast.io.

METAR (pilot weather report)

Retrieved 2018/08/15 09:53 UTC (32 minutes ago):

KPDX 150953Z 31004KT 6SM FU BKN036 21/16 A2986 RMK AO2 SLP110 FU BKN036 T02060161

TAF (pilot weather forecast)

Retrieved 2018/08/15 06:22 UTC (4 hours ago):

TAF KPDX 150520Z 1506/1606 32004KT 5SM FU BKN040